KLIC/LIC METAR and TAF weather

Enter ICAO airport designator
Station Type Date Time Source
KLIC METAR 2022/06/28 08:55 UTC NOAA

KLIC 280855Z AUTO 00000KT 10SM CLR 11/09 A3033 RMK AO2 SLP212 T01060089 58013


Station Type Date Time Source
KLIC Decoded METAR 2022/06/28 08:55 UTC NOAA

LIMON MUNICIPAL AIRPORT, CO, United States (KLIC) 39-16N 103-40W 1630M
Jun 28, 2022 - 04:55 AM EDT / 2022.06.28 0855 UTC
Wind: Calm:0
Visibility: 10 mile(s):0
Sky conditions: clear
Temperature: 51.1 F (10.6 C)
Dew Point: 48.0 F (8.9 C)
Relative Humidity: 89%
Pressure (altimeter): 30.33 in. Hg (1027 hPa)
Pressure tendency: 0.04 inches (1.3 hPa) lower than three hours ago
ob: KLIC 280855Z AUTO 00000KT 10SM CLR 11/09 A3033 RMK AO2 SLP212 T01060089 58013
cycle: 9

Station Type Date Time Source
KLIC TAF UTC NOAA

Error!

Example: see airport list